Aeroporto :
LOGIN :

Iscrizione | Disclaimer

   EN    FR    IT 

 










Sommario :    VFR   VFR Marginale   IFR   IFR Intensivo   IFR Molto Intensivo
Visibilità : 
Base nubi : 
>= 8 km
>= 3000ft
5 / 8 km
1000 / 3000 ft
1500m / 5 km
500 / 1000 ft
800 / 1500m
200 / 500 ft
< 800m
< 200 ft
Simboli :   Temporali  Nebbia  Neve Forte  Precipitazioni Forti  Vento > 20 kt
SIGMETs :   Varie  Temporali  Ghiacco  Turbolenza  Onda orograficha  Ceneri Vulcaniche






- Altitudine del aeroporto : 735 ft
- Codice IATA : EGO


UUOB - Belgorod

ULTIMO METAR :
  • 100330Z 24004MPS CAVOK 07/M01 Q1011 R29/010060 NOSIG

METARs OBSOLETI :
  • 100300Z 24004MPS CAVOK 07/M01 Q1011 R29/010060 NOSIG
  • 100230Z 25004MPS CAVOK 07/M01 Q1011 R29/010060 NOSIG
  • 100200Z 24004MPS CAVOK 07/M01 Q1011 R29/010060 NOSIG
  • 100130Z 24004MPS CAVOK 08/M01 Q1011 R29/010060 NOSIG
  • 100100Z 24004MPS CAVOK 08/M01 Q1012 R29/010060 NOSIG

TAF TAF UUOB
Valido dal 10 a 03 ore il 10 a 12 ore UTC


100200Z 1003/1012 23005MPS 9999 BKN030
TEMPO 1009/1012 22008G13MPS 3100 -SHRA BKN015CB



MetMap, La meteo Aeronautica in un colpo d'occhio ! - Copyright ORBIFLY Dicembre 2007 - Disclaimer

ORBIFLY MET'MAP TEAM :

Programmazione e sviluppo : Alexandra Zaïnal
Concezione : Baudouin d'Aumeries
Aiuto per la programmazione : Marc-Olivier Méhu
Supporto tecnico e logistico : Manuel Goepfert
Aiuto per la traduzione : Arnaldo La Scala

Contatto : metmap@orbifly.com




FONTI E CREDITI :

   NOAA